createdAt,value
2019-03-28T00:02:34.916Z,17.35
2019-03-28T00:05:27.896Z,18.27
2019-03-28T00:08:16.904Z,17.62
2019-03-28T00:14:02.893Z,17.37
2019-03-28T00:19:30.657Z,15.25
2019-03-28T00:22:13.114Z,13.85
2019-03-28T00:24:59.121Z,15.13
2019-03-28T00:27:40.871Z,18.10
2019-03-28T00:30:22.659Z,18.75
2019-03-28T00:33:03.766Z,16.50
2019-03-28T00:35:45.122Z,16.07
2019-03-28T00:38:26.354Z,15.23
2019-03-28T00:41:07.728Z,16.30
2019-03-28T00:43:49.274Z,15.28
2019-03-28T00:46:30.764Z,17.52
2019-03-28T00:49:11.639Z,14.45
2019-03-28T00:51:52.838Z,14.75
2019-03-28T00:54:34.458Z,17.02
2019-03-28T00:57:16.079Z,16.73
2019-03-28T00:59:57.771Z,22.48
2019-03-28T01:02:39.322Z,15.25
2019-03-28T01:05:20.489Z,15.28
2019-03-28T01:08:01.663Z,19.45
2019-03-28T01:10:42.975Z,16.12
2019-03-28T01:13:24.094Z,17.70
2019-03-28T01:16:05.772Z,16.62
2019-03-28T01:18:47.015Z,16.05
2019-03-28T01:21:28.722Z,15.10
2019-03-28T01:24:10.219Z,16.62
2019-03-28T01:26:57.179Z,15.60
2019-03-28T01:29:33.782Z,16.40
2019-03-28T01:35:20.512Z,15.35
2019-03-28T01:38:01.675Z,16.50
2019-03-28T01:40:41.610Z,18.32
2019-03-28T01:43:42.571Z,20.43
2019-03-28T01:46:21.793Z,16.25
2019-03-28T01:49:10.866Z,18.67
2019-03-28T01:55:21.365Z,17.23
2019-03-28T01:58:13.799Z,17.60
2019-03-28T02:01:02.868Z,19.40
2019-03-28T02:03:53.066Z,18.30
2019-03-28T02:12:54.673Z,18.60
2019-03-28T02:15:45.370Z,19.55
2019-03-28T02:18:35.660Z,16.80
2019-03-28T02:21:09.643Z,19.50
2019-03-28T02:23:50.138Z,19.87
2019-03-28T02:26:31.837Z,19.12
2019-03-28T02:29:13.156Z,20.92
2019-03-28T02:31:54.223Z,24.45
2019-03-28T02:34:35.077Z,20.20
2019-03-28T02:37:16.944Z,19.98
2019-03-28T02:39:58.666Z,23.12
2019-03-28T02:42:39.590Z,21.07
2019-03-28T02:45:20.852Z,19.37
2019-03-28T02:48:02.339Z,19.87
2019-03-28T02:50:43.581Z,21.40
2019-03-28T02:53:24.892Z,21.35
2019-03-28T02:56:06.212Z,19.57
2019-03-28T02:58:47.487Z,22.58
2019-03-28T03:01:30.357Z,21.75
2019-03-28T03:04:11.433Z,23.38
2019-03-28T03:06:52.887Z,21.02
2019-03-28T03:09:34.457Z,20.92
2019-03-28T03:12:15.749Z,23.62
2019-03-28T03:14:57.196Z,21.73
2019-03-28T03:17:38.429Z,22.32
2019-03-28T03:20:19.581Z,29.70
2019-03-28T03:23:00.687Z,26.40
2019-03-28T03:25:42.551Z,23.20
2019-03-28T03:28:23.622Z,23.80
2019-03-28T03:31:04.935Z,23.55
2019-03-28T03:33:46.545Z,23.67
2019-03-28T03:36:27.339Z,25.40
2019-03-28T03:39:08.764Z,24.98
2019-03-28T03:41:50.434Z,24.05
2019-03-28T03:44:32.054Z,22.62
2019-03-28T03:47:13.686Z,24.10
2019-03-28T03:49:56.415Z,23.75
2019-03-28T03:52:37.950Z,27.15
2019-03-28T03:55:19.494Z,24.30
2019-03-28T03:58:14.585Z,24.43
2019-03-28T04:00:42.283Z,24.32
2019-03-28T04:03:31.657Z,24.02
2019-03-28T04:06:32.195Z,24.35
2019-03-28T04:09:23.061Z,25.77
2019-03-28T04:12:01.906Z,23.87
2019-03-28T04:17:47.737Z,25.00
2019-03-28T04:20:29.279Z,26.10
2019-03-28T04:23:10.620Z,24.35
2019-03-28T04:25:51.996Z,30.95
2019-03-28T04:28:33.562Z,30.20
2019-03-28T04:31:15.197Z,27.70
2019-03-28T04:33:56.665Z,29.20
2019-03-28T04:36:37.401Z,28.83
2019-03-28T04:39:18.500Z,28.45
2019-03-28T04:42:00.273Z,29.67
2019-03-28T04:44:41.177Z,26.30
2019-03-28T04:47:22.837Z,29.20
2019-03-28T04:50:04.243Z,28.00
2019-03-28T04:52:45.909Z,30.02
2019-03-28T04:55:27.561Z,29.52
2019-03-28T04:58:09.037Z,26.27
2019-03-28T05:00:50.320Z,25.68
2019-03-28T05:03:31.469Z,29.70
2019-03-28T05:06:12.872Z,30.48
2019-03-28T05:08:54.545Z,26.35
2019-03-28T05:11:36.109Z,27.55
2019-03-28T05:14:17.438Z,29.32
2019-03-28T05:16:58.877Z,39.10
2019-03-28T05:19:40.056Z,31.52
2019-03-28T05:22:22.429Z,30.72
2019-03-28T05:25:03.795Z,28.45
2019-03-28T05:27:45.337Z,31.07
2019-03-28T05:30:26.915Z,28.50
2019-03-28T05:33:08.489Z,29.60
2019-03-28T05:35:50.140Z,28.57
2019-03-28T05:38:31.602Z,26.40
2019-03-28T05:41:12.940Z,28.62
2019-03-28T05:43:54.047Z,25.55
2019-03-28T05:46:35.491Z,29.37
2019-03-28T05:49:17.114Z,26.77
2019-03-28T05:51:58.743Z,29.98
2019-03-28T05:54:40.243Z,27.55
2019-03-28T05:57:22.052Z,27.30
2019-03-28T06:00:03.016Z,28.90
2019-03-28T06:02:44.627Z,28.52
2019-03-28T06:05:26.328Z,28.23
2019-03-28T06:08:08.015Z,27.95
2019-03-28T06:10:48.780Z,27.95
2019-03-28T06:13:30.368Z,28.60
2019-03-28T06:16:11.356Z,29.65
2019-03-28T06:18:52.705Z,27.25
2019-03-28T06:21:34.217Z,28.50
2019-03-28T06:24:15.643Z,29.98
2019-03-28T06:26:56.755Z,26.17
2019-03-28T06:29:38.372Z,27.50
2019-03-28T06:32:19.874Z,25.00
2019-03-28T06:35:01.155Z,25.88
2019-03-28T06:37:43.009Z,28.87
2019-03-28T06:40:24.104Z,28.90
2019-03-28T06:43:05.667Z,25.32
2019-03-28T06:45:47.342Z,27.60
2019-03-28T06:48:29.068Z,25.95
2019-03-28T06:51:10.635Z,25.57
2019-03-28T06:53:51.875Z,24.87
2019-03-28T06:56:31.859Z,31.62
2019-03-28T07:02:31.849Z,24.27
2019-03-28T07:11:32.305Z,26.07
2019-03-28T07:14:23.253Z,22.35
2019-03-28T07:17:02.247Z,21.48
2019-03-28T07:22:45.773Z,21.97
2019-03-28T07:25:25.686Z,19.73
2019-03-28T07:28:29.165Z,22.62
2019-03-28T07:31:19.710Z,22.80
2019-03-28T07:33:56.429Z,19.00
2019-03-28T07:39:41.222Z,19.67
2019-03-28T07:42:44.408Z,18.42
2019-03-28T07:45:34.321Z,18.30
2019-03-28T07:51:32.795Z,19.45
2019-03-28T07:54:23.989Z,16.10
2019-03-28T07:57:16.894Z,22.87
2019-03-28T08:00:03.535Z,16.77
2019-03-28T08:02:58.319Z,15.43
2019-03-28T08:08:44.748Z,16.85
2019-03-28T08:11:33.014Z,18.17
2019-03-28T08:14:12.629Z,16.20
2019-03-28T08:17:13.317Z,15.48
2019-03-28T08:22:53.675Z,19.12
2019-03-28T08:25:34.475Z,19.87
2019-03-28T08:28:15.483Z,14.33
2019-03-28T08:30:56.988Z,13.05
2019-03-28T08:33:38.620Z,17.45
2019-03-28T08:36:19.861Z,20.02
2019-03-28T08:39:01.231Z,12.98
2019-03-28T08:41:43.067Z,14.35
2019-03-28T08:44:24.431Z,14.98
2019-03-28T08:47:06.336Z,16.73
2019-03-28T08:49:47.796Z,12.37
2019-03-28T08:52:28.923Z,16.67
2019-03-28T08:55:10.410Z,12.63
2019-03-28T08:57:51.481Z,17.48
2019-03-28T09:00:44.453Z,13.10
2019-03-28T09:03:15.694Z,13.08
2019-03-28T09:05:57.099Z,15.98
2019-03-28T09:08:38.714Z,15.65
2019-03-28T09:11:21.490Z,12.13
2019-03-28T09:14:03.469Z,10.55
2019-03-28T09:16:44.535Z,12.85
2019-03-28T09:19:25.479Z,9.30
2019-03-28T09:22:06.868Z,10.40
2019-03-28T09:24:48.560Z,9.85
2019-03-28T09:27:30.289Z,14.20
2019-03-28T09:30:11.818Z,11.55
2019-03-28T09:32:52.876Z,14.58
2019-03-28T09:35:34.508Z,8.40
2019-03-28T09:38:16.245Z,7.70
2019-03-28T09:40:57.868Z,16.67
2019-03-28T09:43:39.539Z,17.50
2019-03-28T09:46:20.674Z,8.73
2019-03-28T09:49:02.341Z,12.82
2019-03-28T09:51:44.014Z,11.18
2019-03-28T09:54:25.744Z,8.73
2019-03-28T09:57:06.820Z,8.05
2019-03-28T09:59:48.127Z,7.97
2019-03-28T10:02:29.727Z,9.65
2019-03-28T10:05:10.630Z,8.38
2019-03-28T10:07:51.890Z,9.20
2019-03-28T10:10:33.449Z,12.15
2019-03-28T10:13:14.845Z,7.60
2019-03-28T10:15:57.419Z,9.65
2019-03-28T10:18:38.917Z,10.35
2019-03-28T10:21:20.466Z,8.25
2019-03-28T10:24:01.916Z,11.22
2019-03-28T10:26:43.811Z,12.00
2019-03-28T10:29:25.150Z,8.25
2019-03-28T10:32:06.804Z,6.40
2019-03-28T10:34:48.712Z,6.80
2019-03-28T10:37:30.027Z,9.35
2019-03-28T10:40:10.852Z,9.95
2019-03-28T10:42:52.204Z,11.22
2019-03-28T10:45:34.151Z,10.03
2019-03-28T10:48:15.551Z,7.72
2019-03-28T10:50:56.462Z,9.15
2019-03-28T10:53:38.174Z,8.55
2019-03-28T10:56:22.292Z,8.40
2019-03-28T10:59:01.982Z,6.53
2019-03-28T11:01:50.122Z,7.60
2019-03-28T11:04:26.111Z,7.75
2019-03-28T11:07:07.811Z,9.80
2019-03-28T11:09:48.838Z,7.53
2019-03-28T11:12:30.064Z,6.58
2019-03-28T11:15:11.586Z,7.97
2019-03-28T11:17:52.918Z,8.38
2019-03-28T11:20:34.105Z,8.95
2019-03-28T11:23:15.687Z,12.47
2019-03-28T11:25:57.427Z,13.00
2019-03-28T11:28:38.641Z,11.57
2019-03-28T11:31:20.106Z,10.35
2019-03-28T11:34:01.408Z,7.22
2019-03-28T11:36:44.323Z,8.13
2019-03-28T11:39:45.218Z,7.30
2019-03-28T11:45:31.537Z,7.20
2019-03-28T11:48:10.572Z,6.83
2019-03-28T11:54:20.634Z,7.78
2019-03-28T11:57:11.788Z,7.55
2019-03-28T12:00:04.703Z,6.55
2019-03-28T12:02:52.973Z,12.40
2019-03-28T12:05:43.957Z,8.73
2019-03-28T12:08:34.461Z,11.60
2019-03-28T12:14:23.230Z,12.23
2019-03-28T12:20:11.396Z,7.15
2019-03-28T12:23:11.981Z,16.30
2019-03-28T12:26:02.581Z,8.38
2019-03-28T12:31:37.184Z,10.13
2019-03-28T12:34:38.405Z,6.67
2019-03-28T12:43:33.780Z,7.95
2019-03-28T12:46:27.059Z,9.00
2019-03-28T13:04:05.350Z,24.02
2019-03-28T13:06:55.897Z,6.17
2019-03-28T13:12:41.817Z,12.10
2019-03-28T13:21:13.203Z,13.20
2019-03-28T13:23:47.818Z,8.40
2019-03-28T13:26:29.661Z,9.40
2019-03-28T13:29:11.115Z,7.08
2019-03-28T13:31:52.308Z,9.60
2019-03-28T13:34:34.159Z,7.80
2019-03-28T13:37:15.533Z,8.10
2019-03-28T13:39:56.377Z,8.70
2019-03-28T13:42:38.769Z,6.17
2019-03-28T13:45:19.870Z,7.45
2019-03-28T13:48:01.040Z,7.17
2019-03-28T13:50:42.414Z,6.85
2019-03-28T13:53:23.468Z,6.85
2019-03-28T13:56:04.814Z,6.78
2019-03-28T13:58:46.595Z,7.55
2019-03-28T14:01:27.961Z,6.58
2019-03-28T14:04:08.672Z,5.87
2019-03-28T14:06:48.937Z,8.33
2019-03-28T14:15:33.127Z,7.72
2019-03-28T14:18:22.527Z,8.55
2019-03-28T14:21:12.164Z,8.25
2019-03-28T14:24:01.044Z,5.75
2019-03-28T14:26:50.026Z,7.08
2019-03-28T14:29:38.989Z,6.80
2019-03-28T14:35:26.960Z,7.12
2019-03-28T14:38:16.200Z,7.35
2019-03-28T14:49:52.197Z,6.35
2019-03-28T15:01:29.846Z,7.83
2019-03-28T15:04:18.844Z,6.42
2019-03-28T15:07:09.815Z,8.23
2019-03-28T15:09:51.055Z,8.70
2019-03-28T15:12:32.506Z,7.85
2019-03-28T15:15:14.074Z,10.95
2019-03-28T15:17:55.533Z,9.30
2019-03-28T15:20:37.422Z,11.08
2019-03-28T15:23:18.458Z,8.73
2019-03-28T15:26:00.135Z,7.12
2019-03-28T15:28:41.779Z,12.40
2019-03-28T15:31:22.925Z,8.43
2019-03-28T15:34:04.285Z,8.05
2019-03-28T15:36:45.775Z,7.80
2019-03-28T15:39:26.554Z,8.68
2019-03-28T15:42:07.981Z,7.78
2019-03-28T15:44:49.707Z,8.50
2019-03-28T15:47:31.216Z,8.33
2019-03-28T15:50:12.557Z,7.08
2019-03-28T15:52:54.306Z,6.80
2019-03-28T15:55:35.436Z,6.70
2019-03-28T15:58:23.119Z,8.48
2019-03-28T16:01:00.292Z,9.00
2019-03-28T16:03:52.449Z,8.45
2019-03-28T16:06:24.088Z,8.73
2019-03-28T16:09:05.354Z,8.00
2019-03-28T16:11:46.832Z,6.35
2019-03-28T16:14:27.987Z,7.87
2019-03-28T16:17:08.766Z,9.30
2019-03-28T16:19:50.693Z,7.85
2019-03-28T16:22:31.524Z,6.50
2019-03-28T16:25:11.889Z,8.10
2019-03-28T16:28:00.766Z,6.33
2019-03-28T16:34:06.270Z,6.60
2019-03-28T16:42:43.513Z,6.58
2019-03-28T16:45:32.442Z,7.95
2019-03-28T16:51:20.872Z,8.35
2019-03-28T16:54:10.080Z,9.25
2019-03-28T17:00:45.833Z,9.78
2019-03-28T17:03:34.716Z,7.00
2019-03-28T17:06:15.677Z,9.85
2019-03-28T17:08:57.360Z,8.18
2019-03-28T17:11:38.464Z,7.20
2019-03-28T17:14:19.652Z,10.88
2019-03-28T17:17:01.022Z,7.08
2019-03-28T17:19:42.906Z,7.62
2019-03-28T17:22:24.258Z,7.28
2019-03-28T17:25:05.503Z,7.65
2019-03-28T17:27:47.659Z,8.63
2019-03-28T17:30:28.612Z,6.83
2019-03-28T17:33:09.537Z,7.92
2019-03-28T17:35:50.989Z,7.17
2019-03-28T17:38:31.828Z,10.88
2019-03-28T17:41:12.940Z,9.78
2019-03-28T17:43:54.356Z,9.45
2019-03-28T17:46:35.485Z,8.58
2019-03-28T17:49:16.789Z,7.97
2019-03-28T17:51:58.096Z,6.72
2019-03-28T17:54:39.522Z,8.50
2019-03-28T17:57:21.055Z,7.90
2019-03-28T17:59:51.255Z,9.08
2019-03-28T18:02:21.478Z,11.12
2019-03-28T18:04:51.585Z,9.33
2019-03-28T18:07:21.795Z,11.97
2019-03-28T18:09:52.495Z,6.97
2019-03-28T18:12:22.602Z,7.42
2019-03-28T18:14:53.043Z,6.20
2019-03-28T18:17:23.178Z,8.63
2019-03-28T18:19:53.351Z,6.47
2019-03-28T18:22:23.488Z,7.45
2019-03-28T18:24:53.894Z,5.60
2019-03-28T18:27:24.071Z,6.45
2019-03-28T18:29:54.488Z,7.50
2019-03-28T18:32:24.629Z,5.70
2019-03-28T18:35:05.099Z,6.00
2019-03-28T18:37:26.575Z,7.05
2019-03-28T18:39:56.984Z,5.90
2019-03-28T18:42:27.078Z,6.05
2019-03-28T18:44:57.527Z,9.35
2019-03-28T18:47:27.651Z,6.08
2019-03-28T18:49:57.811Z,7.30
2019-03-28T18:52:27.996Z,7.45
2019-03-28T18:54:58.184Z,7.37
2019-03-28T18:57:28.585Z,5.83
2019-03-28T18:59:58.757Z,8.15
2019-03-28T19:02:28.881Z,6.55
2019-03-28T19:04:59.029Z,7.28
2019-03-28T19:07:29.483Z,8.55
2019-03-28T19:09:59.701Z,7.85
2019-03-28T19:12:29.873Z,7.03
2019-03-28T19:15:00.030Z,7.33
2019-03-28T19:17:30.172Z,7.95
2019-03-28T19:20:00.600Z,8.25
2019-03-28T19:22:31.034Z,10.40
2019-03-28T19:25:01.445Z,9.28
2019-03-28T19:27:31.623Z,10.53
2019-03-28T19:30:01.771Z,11.15
2019-03-28T19:32:31.846Z,10.75
2019-03-28T19:35:03.289Z,10.35
2019-03-28T19:37:33.681Z,10.72
2019-03-28T19:40:06.748Z,11.00
2019-03-28T19:42:36.168Z,11.40
2019-03-28T19:45:06.663Z,10.40
2019-03-28T19:47:36.849Z,14.15
2019-03-28T19:50:08.332Z,15.75
2019-03-28T19:52:38.429Z,13.30
2019-03-28T19:55:10.501Z,10.32
2019-03-28T19:57:40.680Z,9.93
2019-03-28T20:00:11.174Z,11.50
2019-03-28T20:02:41.661Z,10.68
2019-03-28T20:05:12.840Z,10.35
2019-03-28T20:07:45.853Z,9.63
2019-03-28T20:10:18.589Z,8.35
2019-03-28T20:12:49.226Z,10.08
2019-03-28T20:15:19.577Z,9.43
2019-03-28T20:17:49.724Z,9.58
2019-03-28T20:20:20.934Z,9.80
2019-03-28T20:22:51.381Z,10.30
2019-03-28T20:25:21.553Z,9.95
2019-03-28T20:27:51.722Z,10.60
2019-03-28T20:30:22.168Z,9.18
2019-03-28T20:32:52.577Z,12.65
2019-03-28T20:35:22.951Z,9.73
2019-03-28T20:37:53.158Z,14.90
2019-03-28T20:40:24.081Z,10.60
2019-03-28T20:42:54.961Z,10.53
2019-03-28T20:45:27.071Z,12.20
2019-03-28T20:47:57.227Z,8.53
2019-03-28T20:50:31.209Z,8.65
2019-03-28T20:52:59.281Z,10.60
2019-03-28T20:55:29.422Z,8.58
2019-03-28T20:57:59.747Z,10.35
2019-03-28T21:00:41.691Z,12.07
2019-03-28T21:03:11.943Z,10.48
2019-03-28T21:05:42.386Z,10.50
2019-03-28T21:08:13.034Z,10.05
2019-03-28T21:10:43.173Z,8.68
2019-03-28T21:13:13.961Z,8.93
2019-03-28T21:15:44.371Z,10.05
2019-03-28T21:18:15.344Z,10.13
2019-03-28T21:20:45.481Z,9.63
2019-03-28T21:23:16.039Z,9.18
2019-03-28T21:25:46.170Z,10.23
2019-03-28T21:28:16.624Z,9.30
2019-03-28T21:30:47.967Z,11.78
2019-03-28T21:33:18.853Z,9.70
2019-03-28T21:35:49.311Z,11.57
2019-03-28T21:38:19.460Z,11.38
2019-03-28T21:40:49.613Z,9.20
2019-03-28T21:43:19.759Z,9.10
2019-03-28T21:45:50.039Z,10.00
2019-03-28T21:48:20.436Z,9.15
2019-03-28T21:50:51.207Z,9.78
2019-03-28T21:53:21.339Z,9.58
2019-03-28T21:55:55.406Z,9.60
2019-03-28T21:58:23.227Z,10.05
2019-03-28T22:00:53.376Z,8.48
2019-03-28T22:03:23.542Z,9.45
2019-03-28T22:05:53.665Z,9.23
2019-03-28T22:08:24.114Z,12.82
2019-03-28T22:10:54.259Z,9.80
2019-03-28T22:13:24.627Z,8.88
2019-03-28T22:15:55.148Z,10.20
2019-03-28T22:18:25.518Z,9.50
2019-03-28T22:20:55.684Z,9.80
2019-03-28T22:23:25.816Z,9.93
2019-03-28T22:25:56.273Z,9.33
2019-03-28T22:28:26.463Z,8.78
2019-03-28T22:30:56.652Z,11.53
2019-03-28T22:33:26.786Z,8.88
2019-03-28T22:35:56.956Z,8.48
2019-03-28T22:38:27.186Z,9.05
2019-03-28T22:40:57.393Z,9.23
2019-03-28T22:43:27.520Z,8.50
2019-03-28T22:45:57.667Z,8.80
2019-03-28T22:48:28.147Z,10.23
2019-03-28T22:50:58.312Z,9.23
2019-03-28T22:53:28.491Z,9.25
2019-03-28T22:55:58.955Z,8.88
2019-03-28T22:58:29.156Z,9.40
2019-03-28T23:00:59.875Z,10.18
2019-03-28T23:03:30.056Z,10.85
2019-03-28T23:06:00.259Z,10.75
2019-03-28T23:08:30.397Z,9.78
2019-03-28T23:11:00.835Z,9.38
2019-03-28T23:13:30.991Z,12.37
2019-03-28T23:16:01.281Z,11.03
2019-03-28T23:18:31.447Z,12.05
2019-03-28T23:21:01.663Z,11.85
2019-03-28T23:23:31.762Z,11.68
2019-03-28T23:26:02.057Z,11.63
2019-03-28T23:28:32.175Z,11.08
2019-03-28T23:31:03.309Z,11.38
2019-03-28T23:33:33.444Z,12.03
2019-03-28T23:36:03.692Z,12.93
2019-03-28T23:38:34.120Z,11.10
2019-03-28T23:41:04.876Z,11.48
2019-03-28T23:43:35.866Z,11.20
2019-03-28T23:46:06.285Z,11.43
2019-03-28T23:48:36.403Z,12.58
2019-03-28T23:51:06.538Z,11.83
2019-03-28T23:53:36.694Z,14.33
2019-03-28T23:56:06.939Z,16.62
2019-03-28T23:58:37.085Z,11.68
